GBBKB EGCF-EGCF

Flight info

Callsign GBBKB
Flight time 0h 4m
Altitude 1000
Route VFR L CIRCUITS
Aircraft C152/L-SFG/C

Departure

Time 2026-04-23 18:00
Airport Sandtoft Airfield (EGCF)

Arrival

Time 2026-04-23 18:04
Airport Sandtoft Airfield (EGCF)
Time Latitude Longitude Altitude Speed Heading
2026-04-23 17:51 53.56140 -0.85444 18 ft 0 kts 131°
2026-04-23 17:55 53.56171 -0.85414 18 ft 9 kts 338°
2026-04-23 17:55 53.56186 -0.85490 19 ft 11 kts 225°
2026-04-23 17:55 53.56100 -0.85628 15 ft 20 kts 225°
2026-04-23 17:56 53.56000 -0.85792 14 ft 21 kts 225°
2026-04-23 17:56 53.55786 -0.86142 17 ft 21 kts 224°
2026-04-23 17:56 53.55712 -0.86222 19 ft 0 kts 278°
2026-04-23 17:59 53.55713 -0.86234 19 ft 5 kts 286°
2026-04-23 17:59 53.55770 -0.86169 18 ft 32 kts 44°
2026-04-23 17:59 53.56040 -0.85730 186 ft 60 kts 50°
2026-04-23 17:59 53.56332 -0.85178 474 ft 60 kts 54°
2026-04-23 18:00 53.56673 -0.84771 785 ft 65 kts 25°
2026-04-23 18:00 53.57154 -0.84767 1015 ft 75 kts 347°
2026-04-23 18:00 53.57704 -0.85170 1039 ft 93 kts 339°
2026-04-23 18:00 53.58244 -0.85826 1126 ft 99 kts 325°
2026-04-23 18:01 53.58743 -0.86676 1148 ft 102 kts 314°
2026-04-23 18:01 53.58861 -0.87782 1216 ft 106 kts 250°
2026-04-23 18:01 53.58372 -0.88693 1209 ft 105 kts 208°
2026-04-23 18:01 53.57695 -0.89121 1200 ft 105 kts 191°
2026-04-23 18:02 53.56997 -0.89413 1214 ft 100 kts 187°
2026-04-23 18:02 53.56312 -0.89630 1190 ft 102 kts 186°
2026-04-23 18:02 53.55614 -0.89870 1144 ft 98 kts 187°
2026-04-23 18:02 53.55068 -0.90051 1142 ft 66 kts 172°
2026-04-23 18:03 53.54652 -0.89787 1032 ft 64 kts 132°
2026-04-23 18:03 53.54401 -0.89182 859 ft 63 kts 108°
2026-04-23 18:03 53.54370 -0.88497 735 ft 54 kts 70°
2026-04-23 18:03 53.54639 -0.88036 602 ft 58 kts 45°
2026-04-23 18:04 53.54923 -0.87582 511 ft 55 kts 52°
2026-04-23 18:04 53.55209 -0.87109 368 ft 57 kts 52°
2026-04-23 18:04 53.55491 -0.86632 190 ft 57 kts 49°
2026-04-23 18:04 53.55759 -0.86190 22 ft 41 kts 51°
2026-04-23 18:05 53.55941 -0.85887 15 ft 56 kts 43°
2026-04-23 18:05 53.56250 -0.85418 298 ft 58 kts 47°
2026-04-23 18:05 53.56542 -0.84980 670 ft 56 kts 28°
2026-04-23 18:05 53.56971 -0.85035 893 ft 72 kts 343°
2026-04-23 18:06 53.57446 -0.85499 1027 ft 88 kts 338°
2026-04-23 18:06 53.57993 -0.86080 1052 ft 95 kts 334°
2026-04-23 18:06 53.58464 -0.86804 1181 ft 95 kts 296°
2026-04-23 18:06 53.58305 -0.87840 1289 ft 95 kts 222°
2026-04-23 18:07 53.57735 -0.88434 1308 ft 101 kts 201°
2026-04-23 18:07 53.57053 -0.88985 1149 ft 113 kts 200°
2026-04-23 18:07 53.56361 -0.89464 1113 ft 92 kts 198°
2026-04-23 18:07 53.55838 -0.89773 1107 ft 69 kts 176°
2026-04-23 18:08 53.55550 -0.89627 1064 ft 62 kts 140°
2026-04-23 18:08 53.55125 -0.89022 820 ft 51 kts 126°
2026-04-23 18:08 53.54899 -0.88482 635 ft 58 kts 109°
2026-04-23 18:08 53.54865 -0.87871 530 ft 54 kts 82°
2026-04-23 18:09 53.55052 -0.87327 426 ft 56 kts 51°
2026-04-23 18:09 53.55343 -0.86874 265 ft 58 kts 49°
2026-04-23 18:09 53.55621 -0.86424 76 ft 54 kts 54°
2026-04-23 18:09 53.55831 -0.86072 16 ft 27 kts 49°
2026-04-23 18:10 53.56047 -0.85723 107 ft 57 kts 46°
2026-04-23 18:10 53.56347 -0.85295 428 ft 53 kts 49°
2026-04-23 18:10 53.56633 -0.84917 764 ft 58 kts 40°
2026-04-23 18:10 53.57029 -0.84772 1017 ft 68 kts 350°
2026-04-23 18:11 53.57523 -0.85292 1053 ft 95 kts 330°
2026-04-23 18:11 53.58071 -0.86005 1068 ft 102 kts 326°
2026-04-23 18:11 53.58542 -0.86891 1126 ft 107 kts 290°
2026-04-23 18:11 53.58382 -0.88049 1210 ft 103 kts 227°
2026-04-23 18:12 53.57777 -0.88707 1191 ft 108 kts 200°
2026-04-23 18:12 53.57068 -0.89162 1100 ft 111 kts 193°
2026-04-23 18:12 53.56327 -0.89528 966 ft 106 kts 191°
2026-04-23 18:12 53.55748 -0.89801 911 ft 70 kts 186°
2026-04-23 18:13 53.55291 -0.89901 861 ft 67 kts 172°
2026-04-23 18:13 53.54852 -0.89819 835 ft 60 kts 149°
2026-04-23 18:13 53.54572 -0.89392 836 ft 52 kts 102°
2026-04-23 18:13 53.54532 -0.88768 720 ft 54 kts 89°
2026-04-23 18:14 53.54580 -0.88141 608 ft 55 kts 66°
2026-04-23 18:14 53.54851 -0.87676 497 ft 57 kts 47°
2026-04-23 18:14 53.55150 -0.87228 375 ft 58 kts 52°
2026-04-23 18:14 53.55427 -0.86739 221 ft 57 kts 49°
2026-04-23 18:15 53.55718 -0.86254 28 ft 56 kts 46°
2026-04-23 18:15 53.55903 -0.85958 14 ft 23 kts 40°
2026-04-23 18:15 53.55982 -0.85831 13 ft 11 kts 46°
2026-04-23 18:15 53.56054 -0.85704 15 ft 18 kts 47°
2026-04-23 18:16 53.56135 -0.85569 17 ft 14 kts 43°
2026-04-23 18:16 53.56189 -0.85477 19 ft 9 kts 60°
2026-04-23 18:16 53.56182 -0.85425 18 ft 0 kts 134°
2026-04-23 18:17 53.56139 -0.85410 18 ft 3 kts 21°
2026-04-23 18:17 53.56140 -0.85409 18 ft 0 kts 335°